Terminal Aerodrome Forecast
Issued by NWS

Home | Current Version | Previous Version | Text Only | Print | Product List | Glossary On
Versions: 1 2 3 4 5 6 7 8 9 10 11 12 13 14 15 16 17 18 19 20 21 22 23 24 25
000
FTPQ31 PGUM 312000 AAA
TAFPQ
TAF AMD
PTKK 312019Z 3120/0118 34008KT P6SM VCSH FEW016 BKN140
      TEMPO 3120/3124 4SM SHRA SCT012 BKN020=

USA.gov is the U.S. government's official web portal to all federal, state and local government web resources and services.